Time;durP1;ratioP1;P1;durP2;ratioP2;P2;SDS_P1;SDS_P2;PMS_P1;PMS_P2;Temp;Humidity;BMP_temperature;BMP_pressure;BME280_temperature;BME280_humidity;BME280_pressure;Samples;Min_cycle;Max_cycle;Signal;HPM_P1;HPM_P2
2022/05/28 00:00:59;;;;;;;7.90;3.17;;;16.10;99.90;;;;;;5031641;28;20213;-62
2022/05/28 00:03:28;;;;;;;4.67;3.20;;;16.00;99.90;;;;;;5031758;28;20275;-62
2022/05/28 00:05:56;;;;;;;9.13;3.40;;;16.00;99.90;;;;;;5033743;28;20217;-62
2022/05/28 00:08:24;;;;;;;4.90;3.13;;;16.10;99.90;;;;;;5035265;28;20233;-62
2022/05/28 00:10:52;;;;;;;6.97;3.03;;;16.00;99.90;;;;;;5035902;28;20209;-61
2022/05/28 00:13:19;;;;;;;9.60;3.50;;;16.00;99.90;;;;;;5035978;28;20681;-61
2022/05/28 00:15:45;;;;;;;7.20;3.53;;;15.70;99.90;;;;;;5035533;28;20210;-60
2022/05/28 00:18:12;;;;;;;9.73;3.27;;;15.70;99.90;;;;;;5035299;28;20303;-62
2022/05/28 00:20:39;;;;;;;5.90;2.93;;;15.60;99.90;;;;;;5035558;28;20698;-63
2022/05/28 00:23:07;;;;;;;6.23;3.30;;;15.60;99.90;;;;;;5035513;28;20206;-63
2022/05/28 00:25:34;;;;;;;4.43;3.30;;;15.70;99.90;;;;;;5035545;28;20206;-62
2022/05/28 00:28:01;;;;;;;6.97;3.13;;;15.70;99.90;;;;;;5035432;28;20280;-61
2022/05/28 00:30:28;;;;;;;6.17;3.33;;;15.70;99.90;;;;;;5035760;28;20206;-61
2022/05/28 00:32:54;;;;;;;6.83;3.10;;;15.70;99.90;;;;;;5035498;28;20206;-61
2022/05/28 00:35:21;;;;;;;4.97;2.63;;;15.60;99.90;;;;;;5035287;28;20230;-62
2022/05/28 00:37:49;;;;;;;4.37;2.90;;;15.40;99.90;;;;;;5035082;28;20259;-62
2022/05/28 00:40:20;;;;;;;6.73;2.87;;;15.40;99.90;;;;;;5035073;28;20233;-62
2022/05/28 00:42:47;;;;;;;9.73;4.00;;;15.30;99.90;;;;;;5035025;28;20297;-62
2022/05/28 00:45:14;;;;;;;5.97;3.10;;;15.40;99.90;;;;;;5035228;28;20202;-62
2022/05/28 00:47:46;;;;;;;7.90;2.77;;;15.40;99.90;;;;;;5034752;28;20612;-62
2022/05/28 00:50:14;;;;;;;6.10;2.60;;;15.30;99.90;;;;;;5034912;28;20599;-62
2022/05/28 00:52:41;;;;;;;8.97;2.33;;;15.30;99.90;;;;;;5035352;28;20293;-61
2022/05/28 00:55:09;;;;;;;7.90;2.87;;;15.10;99.90;;;;;;5034670;28;20608;-61
2022/05/28 00:57:39;;;;;;;10.97;7.83;;;15.00;99.90;;;;;;5034834;28;20202;-62
2022/05/28 01:00:07;;;;;;;6.80;2.60;;;15.00;99.90;;;;;;5034922;28;20230;-64
2022/05/28 01:02:43;;;;;;;5.30;2.50;;;15.00;99.90;;;;;;5035271;28;20448;-63
2022/05/28 01:05:16;;;;;;;5.37;2.17;;;15.00;99.90;;;;;;5034964;28;20252;-61
2022/05/28 01:07:52;;;;;;;8.83;2.33;;;14.90;99.90;;;;;;5034647;28;20670;-60
2022/05/28 01:10:28;;;;;;;5.67;2.10;;;14.80;99.90;;;;;;5035023;28;20220;-62
2022/05/28 01:13:03;;;;;;;9.97;2.10;;;14.80;99.90;;;;;;5034523;28;20202;-61
2022/05/28 01:15:35;;;;;;;7.67;2.00;;;14.80;99.90;;;;;;5034506;28;20709;-62
2022/05/28 01:18:08;;;;;;;7.53;2.20;;;14.70;99.90;;;;;;5033375;28;20623;-61
2022/05/28 01:20:40;;;;;;;10.73;2.00;;;14.80;99.90;;;;;;5034326;28;20210;-61
2022/05/28 01:23:32;;;;;;;6.53;2.03;;;14.80;99.90;;;;;;5034595;28;20210;-62
2022/05/28 01:26:08;;;;;;;10.07;2.37;;;14.80;99.90;;;;;;5034283;28;20206;-62
2022/05/28 01:28:39;;;;;;;6.77;2.33;;;14.90;99.90;;;;;;5034204;28;20284;-62
2022/05/28 01:31:08;;;;;;;5.87;2.20;;;14.90;99.90;;;;;;5034546;28;20557;-61
2022/05/28 01:33:36;;;;;;;6.53;2.13;;;14.80;99.90;;;;;;5034191;28;20206;-61
2022/05/28 01:36:05;;;;;;;7.73;2.07;;;14.70;99.90;;;;;;5033996;28;20233;-61
2022/05/28 01:38:33;;;;;;;6.43;2.27;;;14.80;99.90;;;;;;5033584;28;20230;-62
2022/05/28 01:41:01;;;;;;;6.23;2.20;;;14.80;99.90;;;;;;5033844;28;20280;-61
2022/05/28 01:43:33;;;;;;;6.50;2.00;;;14.70;99.90;;;;;;5034037;28;20213;-61
2022/05/28 01:46:01;;;;;;;8.77;2.10;;;14.60;99.90;;;;;;5034352;28;20594;-60
2022/05/28 01:48:28;;;;;;;7.10;2.20;;;14.50;99.90;;;;;;5033660;28;20233;-61
2022/05/28 01:50:56;;;;;;;9.67;2.00;;;14.50;99.90;;;;;;5033934;28;20206;-61
2022/05/28 01:56:10;;;;;;;8.63;2.10;;;14.30;99.90;;;;;;5033856;28;20738;-61
2022/05/28 01:58:37;;;;;;;4.30;1.77;;;14.30;99.90;;;;;;5033280;28;20648;-62
2022/05/28 02:01:09;;;;;;;9.70;2.40;;;14.40;99.90;;;;;;5033585;28;20210;-63
2022/05/28 02:03:39;;;;;;;8.57;2.70;;;14.50;99.90;;;;;;5033502;28;20206;-61
2022/05/28 02:06:07;;;;;;;6.47;2.07;;;14.40;99.90;;;;;;5033345;28;20203;-62
2022/05/28 02:08:36;;;;;;;6.83;2.63;;;14.50;99.90;;;;;;5033257;28;20226;-62
2022/05/28 02:11:10;;;;;;;7.07;2.10;;;14.40;99.90;;;;;;5033601;28;20212;-62
2022/05/28 02:13:48;;;;;;;6.10;2.10;;;14.40;99.90;;;;;;5033338;28;20206;-62
2022/05/28 02:16:22;;;;;;;6.20;2.27;;;14.50;99.90;;;;;;5033163;28;20237;-62
2022/05/28 02:18:56;;;;;;;5.40;1.90;;;14.40;99.90;;;;;;5032587;28;20237;-61
2022/05/28 02:21:31;;;;;;;6.40;2.00;;;14.40;99.90;;;;;;5033141;28;20588;-61
2022/05/28 02:24:05;;;;;;;6.80;2.43;;;14.40;99.90;;;;;;5033329;28;20210;-62
2022/05/28 02:26:37;;;;;;;11.37;2.60;;;14.20;99.90;;;;;;5032975;28;20245;-62
2022/05/28 02:29:05;;;;;;;6.17;1.90;;;14.00;99.90;;;;;;5031916;28;20226;-63
2022/05/28 02:31:35;;;;;;;8.40;2.50;;;13.80;99.90;;;;;;5033032;28;20206;-62
2022/05/28 02:34:02;;;;;;;7.73;2.00;;;13.70;99.90;;;;;;5033111;28;20207;-63
2022/05/28 02:36:29;;;;;;;7.57;2.33;;;13.80;99.90;;;;;;5033604;28;20202;-62
2022/05/28 02:38:56;;;;;;;8.07;2.33;;;13.80;99.90;;;;;;5033271;28;20768;-62
2022/05/28 02:41:24;;;;;;;4.90;2.00;;;13.70;99.90;;;;;;5033902;28;20253;-62
2022/05/28 02:43:51;;;;;;;10.00;2.50;;;13.70;99.90;;;;;;5033320;28;20206;-62
2022/05/28 02:46:17;;;;;;;7.20;2.23;;;13.70;99.90;;;;;;5032456;28;20203;-62
2022/05/28 02:48:46;;;;;;;5.57;2.07;;;13.70;99.90;;;;;;5032267;28;20226;-62
2022/05/28 02:51:15;;;;;;;7.83;2.37;;;13.50;99.90;;;;;;5032941;28;20260;-62
2022/05/28 02:53:42;;;;;;;7.07;2.53;;;13.50;99.90;;;;;;5032973;28;20225;-62
2022/05/28 02:56:10;;;;;;;8.97;2.20;;;13.50;99.90;;;;;;5033036;28;20261;-62
2022/05/28 02:58:37;;;;;;;10.53;2.70;;;13.40;99.90;;;;;;5032876;28;20226;-62
2022/05/28 03:01:17;;;;;;;6.50;2.00;;;13.40;99.90;;;;;;5033488;28;20216;-63
2022/05/28 03:03:46;;;;;;;10.40;2.30;;;13.30;99.90;;;;;;5032564;28;20741;-62
2022/05/28 03:06:13;;;;;;;7.93;2.50;;;13.20;99.90;;;;;;5032561;28;20229;-63
2022/05/28 03:08:39;;;;;;;7.23;2.43;;;13.00;99.90;;;;;;5032299;28;20222;-62
2022/05/28 03:11:06;;;;;;;11.97;2.63;;;13.00;99.90;;;;;;5032429;28;20728;-62
2022/05/28 03:13:33;;;;;;;7.90;2.40;;;13.00;99.90;;;;;;5032707;28;20213;-62
2022/05/28 03:15:59;;;;;;;13.63;2.60;;;12.90;99.90;;;;;;5032129;28;20643;-61
2022/05/28 03:18:26;;;;;;;6.33;2.40;;;12.90;99.90;;;;;;5031857;28;20234;-62
2022/05/28 03:20:54;;;;;;;8.87;2.23;;;12.80;99.90;;;;;;5032238;28;20210;-62
2022/05/28 03:23:21;;;;;;;6.90;2.60;;;12.70;99.90;;;;;;5032020;28;20214;-62
2022/05/28 03:25:48;;;;;;;7.83;2.30;;;12.70;99.90;;;;;;5032441;28;20266;-62
2022/05/28 03:28:14;;;;;;;5.93;2.47;;;12.60;99.90;;;;;;5032002;28;20279;-62
2022/05/28 03:30:41;;;;;;;5.83;2.10;;;12.50;99.90;;;;;;5032187;28;20214;-62
2022/05/28 03:33:08;;;;;;;7.73;2.90;;;12.50;99.90;;;;;;5032135;28;20203;-62
2022/05/28 03:35:37;;;;;;;8.30;2.57;;;12.40;99.90;;;;;;5031926;28;20729;-63
2022/05/28 03:38:05;;;;;;;7.77;2.47;;;12.30;99.90;;;;;;5031827;28;20296;-62
2022/05/28 03:40:32;;;;;;;5.37;2.57;;;12.30;99.90;;;;;;5031714;28;20210;-62
2022/05/28 03:43:00;;;;;;;7.93;2.63;;;12.10;99.90;;;;;;5031930;28;20287;-62
2022/05/28 03:45:28;;;;;;;6.83;2.33;;;12.10;99.90;;;;;;5031835;28;20225;-62
2022/05/28 03:47:55;;;;;;;9.17;2.40;;;12.00;99.90;;;;;;5031516;28;20276;-62
2022/05/28 03:50:22;;;;;;;11.10;2.47;;;12.00;99.90;;;;;;5031696;28;20268;-62
2022/05/28 03:52:49;;;;;;;6.27;2.50;;;11.90;99.90;;;;;;5031859;28;20206;-62
2022/05/28 03:55:17;;;;;;;9.17;2.47;;;11.90;99.90;;;;;;5031713;28;20233;-62
2022/05/28 03:57:46;;;;;;;7.87;2.33;;;11.80;99.90;;;;;;5031360;28;20689;-62
2022/05/28 04:00:13;;;;;;;10.37;2.77;;;11.80;99.90;;;;;;5031655;28;20321;-62
2022/05/28 04:02:40;;;;;;;8.33;2.90;;;11.70;99.90;;;;;;5031536;28;20214;-62
2022/05/28 04:05:08;;;;;;;11.70;3.13;;;11.70;99.90;;;;;;5031868;28;20198;-62
2022/05/28 04:07:34;;;;;;;7.07;2.70;;;11.70;99.90;;;;;;5031514;28;20213;-62
2022/05/28 04:10:01;;;;;;;7.53;2.70;;;11.80;99.90;;;;;;5031615;28;20230;-61
2022/05/28 04:12:30;;;;;;;7.07;2.40;;;11.80;99.90;;;;;;5031653;28;20216;-62
2022/05/28 04:14:57;;;;;;;10.03;2.43;;;11.80;99.90;;;;;;5031498;28;20226;-62
2022/05/28 04:17:24;;;;;;;10.57;2.67;;;11.90;99.90;;;;;;5031244;28;20207;-61
2022/05/28 04:19:50;;;;;;;9.53;3.10;;;11.90;99.90;;;;;;5031618;28;20245;-62
2022/05/28 04:22:19;;;;;;;8.17;2.50;;;11.90;99.90;;;;;;5031744;28;20216;-61
2022/05/28 04:24:46;;;;;;;5.57;2.50;;;11.90;99.90;;;;;;5031783;28;20203;-62
2022/05/28 04:27:13;;;;;;;7.63;2.67;;;12.00;99.90;;;;;;5031476;28;20219;-62
2022/05/28 04:29:41;;;;;;;8.67;2.80;;;12.00;99.90;;;;;;5031352;28;20741;-62
2022/05/28 04:32:08;;;;;;;6.50;2.40;;;12.10;99.90;;;;;;5031464;28;20214;-62
2022/05/28 04:34:35;;;;;;;8.20;3.23;;;12.10;99.90;;;;;;5031501;28;20210;-62
2022/05/28 04:37:02;;;;;;;7.70;2.87;;;12.20;99.90;;;;;;5031213;28;20226;-62
2022/05/28 04:39:28;;;;;;;14.20;3.20;;;12.30;99.90;;;;;;5031397;28;20230;-62
2022/05/28 04:41:56;;;;;;;9.67;3.00;;;12.40;99.90;;;;;;5031328;28;20261;-62
2022/05/28 04:44:22;;;;;;;10.83;3.13;;;12.50;99.90;;;;;;5031184;28;20213;-62
2022/05/28 04:46:50;;;;;;;7.80;2.60;;;12.60;99.90;;;;;;5031387;28;20260;-62
2022/05/28 04:49:17;;;;;;;10.17;2.70;;;12.70;99.90;;;;;;5031116;28;20272;-63
2022/05/28 04:51:44;;;;;;;10.47;2.83;;;12.80;99.90;;;;;;5031271;28;20674;-62
2022/05/28 04:54:11;;;;;;;8.43;3.27;;;13.00;99.90;;;;;;5034903;28;20218;-62
2022/05/28 04:56:37;;;;;;;8.33;2.17;;;13.10;99.90;;;;;;5035198;28;20222;-62
2022/05/28 04:59:04;;;;;;;5.83;1.83;;;13.30;99.90;;;;;;5034904;28;20241;-62
2022/05/28 05:01:31;;;;;;;11.47;3.53;;;13.50;99.90;;;;;;5034895;28;20214;-62
2022/05/28 05:03:59;;;;;;;10.07;3.03;;;13.60;99.90;;;;;;5034803;28;20206;-62
2022/05/28 05:06:26;;;;;;;11.47;3.40;;;13.90;99.90;;;;;;5034763;28;20214;-62
2022/05/28 05:08:52;;;;;;;9.90;2.70;;;14.20;99.90;;;;;;5034563;28;20236;-62
2022/05/28 05:11:19;;;;;;;10.30;3.53;;;14.50;99.90;;;;;;5034542;28;20213;-62
2022/05/28 05:13:46;;;;;;;7.00;2.30;;;14.90;99.90;;;;;;5034398;28;20202;-63
2022/05/28 05:16:17;;;;;;;9.33;2.10;;;16.20;99.90;;;;;;5034564;28;20284;-62
2022/05/28 05:18:43;;;;;;;7.83;2.60;;;17.90;99.90;;;;;;5034966;28;20230;-61
2022/05/28 05:21:12;;;;;;;6.07;2.50;;;19.60;99.90;;;;;;5034493;28;20202;-61
2022/05/28 05:23:38;;;;;;;8.80;2.13;;;20.70;98.90;;;;;;5034485;28;20221;-61
2022/05/28 05:26:10;;;;;;;5.60;1.92;;;21.10;97.20;;;;;;5034212;28;20616;-62
2022/05/28 05:28:36;;;;;;;9.25;2.22;;;20.90;96.00;;;;;;5034158;28;20317;-62
2022/05/28 05:31:03;;;;;;;10.30;2.53;;;20.60;95.30;;;;;;5034323;28;20206;-61
2022/05/28 05:33:30;;;;;;;7.22;2.03;;;20.90;94.70;;;;;;5034332;28;20281;-61
2022/05/28 05:35:57;;;;;;;5.00;1.60;;;22.00;92.40;;;;;;5034017;28;20229;-60
2022/05/28 05:38:24;;;;;;;9.68;2.20;;;22.60;87.60;;;;;;5034207;28;20276;-61
2022/05/28 05:40:53;;;;;;;6.13;2.35;;;22.60;86.90;;;;;;5033880;28;20214;-62
2022/05/28 05:43:19;;;;;;;6.20;2.42;;;22.60;86.20;;;;;;5034126;28;20284;-61
2022/05/28 05:45:52;;;;;;;5.53;2.20;;;22.90;83.80;;;;;;5033985;28;20576;-59
2022/05/28 05:48:18;;;;;;;5.53;2.45;;;24.20;81.50;;;;;;5033654;28;20710;-55
2022/05/28 05:50:45;;;;;;;9.25;4.32;;;25.80;73.90;;;;;;5033841;28;20210;-55
2022/05/28 05:53:12;;;;;;;7.53;3.03;;;26.70;71.70;;;;;;5033655;28;20218;-56
2022/05/28 05:55:40;;;;;;;7.03;2.55;;;26.30;69.50;;;;;;5033767;28;20226;-55
2022/05/28 05:58:07;;;;;;;9.68;3.60;;;26.80;68.80;;;;;;5033472;28;20216;-55
2022/05/28 06:00:34;;;;;;;7.50;2.70;;;27.30;65.10;;;;;;5033794;28;20213;-57
2022/05/28 06:03:00;;;;;;;6.10;1.92;;;26.40;64.10;;;;;;5033737;28;20268;-60
2022/05/28 06:05:27;;;;;;;6.47;2.10;;;25.70;64.30;;;;;;5033736;28;20240;-59
2022/05/28 06:07:54;;;;;;;5.40;2.20;;;25.70;63.70;;;;;;5033268;28;20670;-60
2022/05/28 06:10:20;;;;;;;7.68;2.10;;;25.90;63.70;;;;;;5033534;28;20628;-60
2022/05/28 06:12:48;;;;;;;7.95;2.58;;;26.30;62.30;;;;;;5033558;28;20256;-60
2022/05/28 06:15:15;;;;;;;10.02;2.40;;;27.70;60.00;;;;;;5033576;28;20241;-61
2022/05/28 06:17:42;;;;;;;6.03;2.13;;;28.30;56.80;;;;;;5033183;28;20213;-61
2022/05/28 06:20:12;;;;;;;6.68;2.30;;;27.40;57.60;;;;;;5033366;28;20234;-61
2022/05/28 06:22:39;;;;;;;10.63;4.32;;;27.20;58.80;;;;;;5033555;28;20213;-61
2022/05/28 06:25:06;;;;;;;6.03;2.03;;;27.80;58.80;;;;;;5033256;28;20210;-58
2022/05/28 06:27:34;;;;;;;3.67;1.70;;;29.30;56.40;;;;;;5032999;28;20682;-60
2022/05/28 06:30:02;;;;;;;5.22;1.85;;;30.60;51.30;;;;;;5033201;28;20226;-60
2022/05/28 06:32:28;;;;;;;5.93;2.40;;;31.40;50.80;;;;;;5033493;28;20214;-60
2022/05/28 06:34:55;;;;;;;8.15;2.00;;;32.30;48.60;;;;;;5033957;28;20210;-59
2022/05/28 06:37:23;;;;;;;5.82;2.08;;;33.10;46.00;;;;;;5033618;28;20233;-58
2022/05/28 06:39:49;;;;;;;9.50;5.63;;;32.90;46.30;;;;;;5033354;28;20232;-59
2022/05/28 06:42:16;;;;;;;6.68;2.00;;;32.30;45.50;;;;;;5032792;28;20669;-59
2022/05/28 06:44:43;;;;;;;6.32;2.15;;;31.70;45.50;;;;;;5032899;28;20589;-57
2022/05/28 06:47:11;;;;;;;6.72;1.98;;;32.00;45.80;;;;;;5032523;28;20202;-57
2022/05/28 06:49:37;;;;;;;5.10;1.88;;;32.50;45.30;;;;;;5032553;28;20226;-57
2022/05/28 06:52:05;;;;;;;3.90;1.80;;;32.40;44.30;;;;;;5033160;28;20214;-57
2022/05/28 06:54:31;;;;;;;5.25;1.95;;;32.20;43.80;;;;;;5032688;28;20206;-57
2022/05/28 06:56:58;;;;;;;6.40;2.10;;;32.10;44.70;;;;;;5033054;28;20226;-58
2022/05/28 06:59:25;;;;;;;5.45;1.83;;;32.30;44.60;;;;;;5032282;28;20256;-57
2022/05/28 07:01:51;;;;;;;6.10;1.67;;;33.60;42.60;;;;;;5032540;28;20206;-58
2022/05/28 07:04:19;;;;;;;3.78;1.58;;;33.70;42.30;;;;;;5032779;28;20209;-59
2022/05/28 07:06:46;;;;;;;4.32;1.92;;;33.80;41.40;;;;;;5032601;28;20202;-58
2022/05/28 07:09:13;;;;;;;5.03;1.80;;;34.00;40.80;;;;;;5032162;28;20656;-58
2022/05/28 07:11:39;;;;;;;4.63;1.77;;;33.70;41.30;;;;;;5032510;28;20210;-60
2022/05/28 07:14:07;;;;;;;7.72;2.10;;;33.60;41.30;;;;;;5032326;28;20209;-58
2022/05/28 07:16:33;;;;;;;7.28;2.00;;;34.10;40.80;;;;;;5031744;28;20218;-59
2022/05/28 07:19:00;;;;;;;5.28;1.75;;;34.00;40.60;;;;;;5032103;28;20631;-59
2022/05/28 07:21:28;;;;;;;4.45;1.65;;;33.90;40.50;;;;;;5032547;28;20214;-58
2022/05/28 07:23:55;;;;;;;6.00;1.98;;;33.90;40.00;;;;;;5032556;28;20210;-58
2022/05/28 07:26:22;;;;;;;5.20;1.80;;;34.00;39.80;;;;;;5032557;28;20222;-58
2022/05/28 07:28:49;;;;;;;5.07;1.90;;;34.50;39.10;;;;;;5032178;28;20318;-58
2022/05/28 07:31:18;;;;;;;5.57;1.73;;;35.50;37.40;;;;;;5032356;28;20678;-58
2022/05/28 07:33:46;;;;;;;4.90;1.65;;;36.10;37.30;;;;;;5032446;28;20201;-58
2022/05/28 07:36:16;;;;;;;8.73;4.93;;;36.50;36.30;;;;;;5032337;28;20284;-59
2022/05/28 07:38:44;;;;;;;5.13;1.67;;;36.60;36.00;;;;;;5032145;28;20238;-58
2022/05/28 07:41:14;;;;;;;5.80;1.90;;;36.40;35.60;;;;;;5031974;28;20752;-58
2022/05/28 07:43:42;;;;;;;5.38;3.13;;;35.50;36.60;;;;;;5031849;28;20202;-60
2022/05/28 07:46:12;;;;;;;6.20;1.70;;;35.40;37.20;;;;;;5032118;28;20203;-59
2022/05/28 07:48:39;;;;;;;5.60;1.88;;;36.10;36.20;;;;;;5031874;28;20317;-59
2022/05/28 07:51:06;;;;;;;5.43;1.80;;;37.10;35.00;;;;;;5032014;28;20202;-58
2022/05/28 07:53:35;;;;;;;3.70;1.33;;;37.70;34.00;;;;;;5031946;28;20210;-63
2022/05/28 07:56:03;;;;;;;3.88;1.50;;;37.80;33.20;;;;;;5031378;28;20217;-59
2022/05/28 07:58:30;;;;;;;6.50;1.80;;;37.50;34.20;;;;;;5032518;28;20605;-58
2022/05/28 08:00:58;;;;;;;5.22;1.60;;;37.00;32.80;;;;;;5033293;28;20210;-58
2022/05/28 08:03:25;;;;;;;5.10;1.67;;;36.90;33.30;;;;;;5033678;28;20454;-59
2022/05/28 08:05:54;;;;;;;4.90;1.50;;;36.90;33.80;;;;;;5033054;28;20264;-57
2022/05/28 08:08:22;;;;;;;8.85;2.03;;;37.30;33.70;;;;;;5032379;28;20744;-58
2022/05/28 08:10:49;;;;;;;5.13;1.65;;;36.80;33.60;;;;;;5031743;28;20202;-57
2022/05/28 08:13:20;;;;;;;5.13;1.77;;;35.20;35.60;;;;;;5031479;28;20214;-57
2022/05/28 08:15:48;;;;;;;5.15;1.63;;;34.30;36.20;;;;;;5031539;28;20267;-59
2022/05/28 08:18:20;;;;;;;5.45;1.73;;;33.40;36.80;;;;;;5030888;28;20756;-58
2022/05/28 08:23:31;;;;;;;4.50;1.50;;;31.70;39.30;;;;;;5031897;28;20566;-57
2022/05/28 08:25:58;;;;;;;6.60;1.90;;;30.90;40.10;;;;;;5031531;28;20214;-59
2022/05/28 08:28:26;;;;;;;4.22;1.90;;;30.50;41.10;;;;;;5034065;28;20226;-57
2022/05/28 08:30:53;;;;;;;4.22;1.60;;;30.00;41.70;;;;;;5035549;28;20206;-57
2022/05/28 08:33:21;;;;;;;5.13;1.83;;;29.90;41.10;;;;;;5035215;28;20570;-59
2022/05/28 08:35:51;;;;;;;4.55;1.50;;;29.50;42.00;;;;;;5035029;28;20207;-57
2022/05/28 08:38:20;;;;;;;5.43;1.67;;;29.80;41.80;;;;;;5034981;28;20234;-57
2022/05/28 08:40:50;;;;;;;4.50;1.70;;;29.70;41.90;;;;;;5035206;28;20214;-57
2022/05/28 08:43:19;;;;;;;5.45;1.70;;;29.00;42.70;;;;;;5035151;28;20213;-58
2022/05/28 08:45:50;;;;;;;5.53;1.80;;;28.00;44.70;;;;;;5034975;28;20213;-59
2022/05/28 08:48:20;;;;;;;4.32;1.48;;;27.60;45.60;;;;;;5034616;28;20706;-58
2022/05/28 08:50:52;;;;;;;4.18;1.58;;;27.40;45.70;;;;;;5035380;28;20232;-58
2022/05/28 08:53:22;;;;;;;4.07;1.38;;;26.50;46.50;;;;;;5035001;28;20301;-58
2022/05/28 08:55:53;;;;;;;4.75;1.80;;;25.50;49.00;;;;;;5034831;28;20210;-57
2022/05/28 08:58:23;;;;;;;4.78;1.73;;;24.80;49.80;;;;;;5034505;28;20250;-59
2022/05/28 09:00:56;;;;;;;6.13;1.83;;;24.20;50.20;;;;;;5034784;28;20217;-57
2022/05/28 09:03:26;;;;;;;6.10;1.88;;;23.60;50.50;;;;;;5034921;28;20221;-58
2022/05/28 09:05:58;;;;;;;3.63;1.50;;;23.10;51.50;;;;;;5035210;28;20218;-58
2022/05/28 09:08:28;;;;;;;5.47;2.03;;;22.80;53.00;;;;;;5034768;28;20635;-59
2022/05/28 09:10:57;;;;;;;6.40;1.75;;;22.60;54.70;;;;;;5034706;28;20237;-58
2022/05/28 09:13:29;;;;;;;5.22;1.65;;;22.60;53.80;;;;;;5034895;28;20264;-58
2022/05/28 09:16:00;;;;;;;6.85;1.58;;;22.50;53.70;;;;;;5035199;28;20212;-58
2022/05/28 09:18:33;;;;;;;6.68;1.85;;;22.30;54.30;;;;;;5034394;28;20238;-57
2022/05/28 09:21:00;;;;;;;4.70;1.77;;;21.90;55.30;;;;;;5034717;28;20301;-58
2022/05/28 09:23:27;;;;;;;6.18;1.88;;;21.80;55.50;;;;;;5034459;28;20206;-58
2022/05/28 09:25:57;;;;;;;7.20;1.90;;;21.80;55.90;;;;;;5034886;28;20216;-58
2022/05/28 09:28:38;;;;;;;4.55;1.70;;;22.00;56.30;;;;;;5034484;28;20226;-58
2022/05/28 09:31:21;;;;;;;4.90;1.77;;;22.30;56.10;;;;;;5034697;28;20861;-57
2022/05/28 09:34:03;;;;;;;3.72;1.30;;;22.20;54.70;;;;;;5034884;28;20663;-57
2022/05/28 09:36:40;;;;;;;4.05;1.60;;;21.60;55.70;;;;;;5034320;28;20240;-57
2022/05/28 09:39:19;;;;;;;6.40;1.60;;;21.20;56.90;;;;;;5033214;28;20645;-57
2022/05/28 09:41:57;;;;;;;6.20;1.60;;;21.30;56.20;;;;;;5034181;28;20213;-59
2022/05/28 09:44:36;;;;;;;4.15;1.80;;;21.70;55.20;;;;;;5033928;28;20210;-57
2022/05/28 09:47:09;;;;;;;6.18;1.63;;;22.00;54.50;;;;;;5034162;28;20636;-57
2022/05/28 09:49:45;;;;;;;5.03;1.60;;;22.50;55.00;;;;;;5034134;28;20603;-58
2022/05/28 09:52:12;;;;;;;6.85;1.92;;;22.90;54.00;;;;;;5034263;28;20210;-59
2022/05/28 09:54:38;;;;;;;5.22;1.50;;;22.90;53.80;;;;;;5034204;28;20261;-57
2022/05/28 09:57:10;;;;;;;5.88;1.75;;;22.80;54.20;;;;;;5034008;28;20222;-57
2022/05/28 09:59:51;;;;;;;4.40;1.27;;;22.70;54.00;;;;;;5034069;28;20226;-57
2022/05/28 10:02:22;;;;;;;4.63;1.45;;;22.30;53.80;;;;;;5034146;28;20207;-58
2022/05/28 10:04:54;;;;;;;3.50;1.48;;;21.90;55.10;;;;;;5034159;28;20206;-57
2022/05/28 10:07:35;;;;;;;6.80;1.55;;;21.70;54.30;;;;;;5033719;28;20621;-58
2022/05/28 10:10:12;;;;;;;6.88;1.90;;;21.60;55.80;;;;;;5033787;28;20229;-58
2022/05/28 10:12:38;;;;;;;5.72;1.88;;;21.50;55.10;;;;;;5033775;28;20221;-60
2022/05/28 10:15:11;;;;;;;5.85;2.67;;;21.50;56.10;;;;;;5033812;28;20264;-58
2022/05/28 10:17:42;;;;;;;4.55;1.85;;;21.70;56.00;;;;;;5033487;28;20226;-59
2022/05/28 10:20:17;;;;;;;4.93;1.65;;;21.90;56.20;;;;;;5033545;28;20238;-58
2022/05/28 10:22:45;;;;;;;6.15;1.70;;;22.00;55.80;;;;;;5033726;28;20217;-58
2022/05/28 10:25:28;;;;;;;5.22;1.65;;;21.90;56.20;;;;;;5033895;28;20637;-57
2022/05/28 10:27:55;;;;;;;6.43;2.00;;;21.60;55.00;;;;;;5033132;28;20644;-60
2022/05/28 10:30:25;;;;;;;6.28;1.83;;;21.40;55.50;;;;;;5033069;28;20217;-58
2022/05/28 10:32:54;;;;;;;5.07;1.60;;;21.60;56.10;;;;;;5033310;28;20238;-58
2022/05/28 10:35:23;;;;;;;5.53;1.42;;;21.90;55.30;;;;;;5032753;28;20670;-59
2022/05/28 10:37:50;;;;;;;6.43;1.85;;;22.00;55.40;;;;;;5032711;28;20234;-56
2022/05/28 10:40:23;;;;;;;7.35;1.88;;;22.40;55.30;;;;;;5033031;28;20252;-60
2022/05/28 10:42:56;;;;;;;4.57;1.70;;;22.60;54.60;;;;;;5032893;28;20210;-57
2022/05/28 10:45:33;;;;;;;6.63;1.73;;;22.80;54.80;;;;;;5032699;28;20588;-58
2022/05/28 10:48:23;;;;;;;4.05;1.50;;;22.70;54.30;;;;;;5032776;28;20285;-57
2022/05/28 10:51:01;;;;;;;6.15;1.50;;;22.20;55.30;;;;;;5032238;28;20244;-57
2022/05/28 10:53:50;;;;;;;3.88;1.50;;;21.70;54.30;;;;;;5033539;28;20225;-59
2022/05/28 10:56:30;;;;;;;5.45;1.58;;;21.20;55.50;;;;;;5032816;28;20210;-59
2022/05/28 10:59:07;;;;;;;5.95;1.48;;;21.20;56.20;;;;;;5032312;28;20230;-60
2022/05/28 11:01:40;;;;;;;2.47;1.10;;;21.10;55.30;;;;;;5032769;28;20202;-57
2022/05/28 11:04:40;;;;;;;5.63;1.55;;;21.10;55.00;;;;;;5032787;28;20607;-59
2022/05/28 11:07:19;;;;;;;3.42;1.20;;;21.10;55.50;;;;;;5032549;28;20221;-60
2022/05/28 11:09:58;;;;;;;4.95;1.23;;;21.30;53.00;;;;;;5032635;28;20272;-58
2022/05/28 11:12:48;;;;;;;2.83;1.25;;;21.40;51.90;;;;;;5032597;28;20213;-58
2022/05/28 11:15:30;;;;;;;1.80;1.13;;;21.40;52.30;;;;;;5032756;28;20214;-58
2022/05/28 11:18:17;;;;;;;6.00;2.50;;;21.60;52.50;;;;;;5032350;28;20222;-59
2022/05/28 11:20:55;;;;;;;7.78;2.30;;;22.00;52.10;;;;;;5062839;23;20646;-57
2022/05/28 11:23:38;;;;;;;2.92;1.60;;;22.50;52.70;;;;;;5050662;28;20205;-58
2022/05/28 11:26:15;;;;;;;3.65;1.42;;;22.80;52.50;;;;;;5052702;28;20212;-59
2022/05/28 11:29:06;;;;;;;3.00;1.42;;;23.00;52.00;;;;;;5052288;28;20581;-58
2022/05/28 11:31:38;;;;;;;3.67;1.63;;;23.10;52.00;;;;;;5052660;28;20213;-60
2022/05/28 11:34:11;;;;;;;6.57;2.38;;;23.10;52.30;;;;;;5052582;28;20723;-58
2022/05/28 11:36:43;;;;;;;5.15;1.70;;;23.30;52.30;;;;;;5052821;28;20212;-58
2022/05/28 11:39:17;;;;;;;3.65;1.25;;;23.50;50.70;;;;;;5052307;28;20329;-58
2022/05/28 11:41:51;;;;;;;3.78;1.30;;;23.70;50.80;;;;;;5052673;28;20212;-59
2022/05/28 11:44:24;;;;;;;3.53;1.20;;;23.90;50.50;;;;;;5052490;28;20205;-58
2022/05/28 11:47:00;;;;;;;6.30;1.40;;;24.30;50.30;;;;;;5052066;28;20209;-59
2022/05/28 11:52:32;;;;;;;1.88;0.98;;;24.90;49.60;;;;;;5052292;28;20200;-58
2022/05/28 11:55:06;;;;;;;5.18;1.50;;;24.50;48.50;;;;;;5052037;28;20205;-57
2022/05/28 11:57:39;;;;;;;5.55;1.13;;;24.20;49.50;;;;;;5051849;28;20252;-60
2022/05/28 12:00:08;;;;;;;4.68;1.10;;;23.90;49.40;;;;;;5051970;28;20229;-59
2022/05/28 12:02:40;;;;;;;4.07;1.25;;;23.80;48.70;;;;;;5055233;28;20217;-57
2022/05/28 12:05:19;;;;;;;2.53;1.40;;;23.80;48.40;;;;;;5055978;28;20577;-57
2022/05/28 12:07:52;;;;;;;4.18;1.10;;;23.60;48.00;;;;;;5055817;28;20201;-57
2022/05/28 12:10:37;;;;;;;5.78;1.60;;;23.50;49.10;;;;;;5056246;28;20763;-57
2022/05/28 12:13:04;;;;;;;4.38;1.27;;;23.00;50.20;;;;;;5056255;28;20212;-58
2022/05/28 12:15:34;;;;;;;4.30;1.33;;;23.00;50.80;;;;;;5055817;28;20232;-57
2022/05/28 12:18:07;;;;;;;3.22;1.33;;;23.00;51.10;;;;;;5055515;28;20257;-57
2022/05/28 12:20:36;;;;;;;4.43;1.67;;;23.10;51.50;;;;;;5055483;28;20313;-57
2022/05/28 12:23:05;;;;;;;5.15;1.60;;;23.40;50.50;;;;;;5055991;28;20217;-57
2022/05/28 12:25:36;;;;;;;4.05;1.20;;;23.40;50.40;;;;;;5055744;28;20209;-58
2022/05/28 12:28:12;;;;;;;5.45;1.80;;;23.30;50.60;;;;;;5055551;28;20296;-58
2022/05/28 12:30:48;;;;;;;3.80;1.33;;;23.30;51.20;;;;;;5055541;28;20753;-58
2022/05/28 12:33:25;;;;;;;4.80;1.40;;;23.30;51.10;;;;;;5054992;28;20692;-57
2022/05/28 12:36:08;;;;;;;2.85;1.48;;;23.10;50.80;;;;;;5055576;28;20799;-58
2022/05/28 12:39:01;;;;;;;4.97;1.70;;;22.90;51.40;;;;;;5055176;28;20235;-58
2022/05/28 12:41:29;;;;;;;3.45;1.15;;;22.70;52.10;;;;;;5055334;28;20217;-58
2022/05/28 12:44:04;;;;;;;4.55;1.67;;;23.00;51.70;;;;;;5055260;28;20205;-58
2022/05/28 12:46:43;;;;;;;2.50;1.00;;;23.10;51.30;;;;;;5055070;28;20699;-58
2022/05/28 12:49:13;;;;;;;2.97;1.30;;;22.80;52.30;;;;;;5054994;28;20221;-59
2022/05/28 12:52:10;;;;;;;2.63;1.23;;;22.50;52.90;;;;;;5055647;28;20212;-58
2022/05/28 12:54:41;;;;;;;4.95;1.50;;;22.20;53.60;;;;;;5055231;28;20209;-58
2022/05/28 12:57:12;;;;;;;5.35;2.42;;;22.10;53.50;;;;;;5055466;28;20209;-57
2022/05/28 12:59:41;;;;;;;5.22;1.20;;;22.20;53.10;;;;;;5054641;28;20232;-57
2022/05/28 13:02:25;;;;;;;5.28;1.45;;;22.40;49.70;;;;;;5054843;28;20221;-57
2022/05/28 13:04:59;;;;;;;3.13;1.02;;;22.40;51.10;;;;;;5055330;28;20309;-57
2022/05/28 13:07:34;;;;;;;3.97;1.30;;;22.20;50.20;;;;;;5054925;28;20213;-57
2022/05/28 13:10:07;;;;;;;2.33;1.20;;;22.20;50.90;;;;;;5054511;28;20229;-57